sensor_id;sensor_type;location;lat;lon;timestamp;P1;durP1;ratioP1;P2;durP2;ratioP2
13238;SDS011;6686;51.292;4.166;2023-02-27T00:02:02;6.32;;;3.95;;
13238;SDS011;6686;51.292;4.166;2023-02-27T00:04:48;5.27;;;3.73;;
13238;SDS011;6686;51.292;4.166;2023-02-27T00:07:33;6.23;;;3.50;;
13238;SDS011;6686;51.292;4.166;2023-02-27T00:10:20;7.57;;;3.27;;
13238;SDS011;6686;51.292;4.166;2023-02-27T00:13:06;4.50;;;3.20;;
13238;SDS011;6686;51.292;4.166;2023-02-27T00:15:53;5.75;;;2.90;;
13238;SDS011;6686;51.292;4.166;2023-02-27T00:18:39;6.50;;;2.92;;
13238;SDS011;6686;51.292;4.166;2023-02-27T00:21:26;4.68;;;2.40;;
13238;SDS011;6686;51.292;4.166;2023-02-27T00:24:11;4.43;;;2.50;;
13238;SDS011;6686;51.292;4.166;2023-02-27T00:26:57;6.40;;;2.70;;
13238;SDS011;6686;51.292;4.166;2023-02-27T00:29:43;4.63;;;3.10;;
13238;SDS011;6686;51.292;4.166;2023-02-27T00:32:31;8.80;;;3.00;;
13238;SDS011;6686;51.292;4.166;2023-02-27T00:35:16;5.73;;;2.30;;
13238;SDS011;6686;51.292;4.166;2023-02-27T00:38:02;6.40;;;2.50;;
13238;SDS011;6686;51.292;4.166;2023-02-27T00:40:51;5.27;;;2.73;;
13238;SDS011;6686;51.292;4.166;2023-02-27T00:43:37;5.53;;;2.87;;
13238;SDS011;6686;51.292;4.166;2023-02-27T00:46:23;5.80;;;3.37;;
13238;SDS011;6686;51.292;4.166;2023-02-27T00:49:09;6.63;;;3.33;;
13238;SDS011;6686;51.292;4.166;2023-02-27T00:51:55;6.63;;;2.97;;
13238;SDS011;6686;51.292;4.166;2023-02-27T00:54:41;9.13;;;2.63;;
13238;SDS011;6686;51.292;4.166;2023-02-27T00:57:27;5.77;;;2.57;;
13238;SDS011;6686;51.292;4.166;2023-02-27T01:00:13;3.60;;;2.00;;
13238;SDS011;6686;51.292;4.166;2023-02-27T01:02:59;3.53;;;2.20;;
13238;SDS011;6686;51.292;4.166;2023-02-27T01:05:45;4.23;;;1.93;;
13238;SDS011;6686;51.292;4.166;2023-02-27T01:08:31;5.73;;;2.50;;
13238;SDS011;6686;51.292;4.166;2023-02-27T01:11:16;2.43;;;1.60;;
13238;SDS011;6686;51.292;4.166;2023-02-27T01:14:04;3.27;;;1.90;;
13238;SDS011;6686;51.292;4.166;2023-02-27T01:16:50;3.63;;;1.93;;
13238;SDS011;6686;51.292;4.166;2023-02-27T01:19:36;3.60;;;1.73;;
13238;SDS011;6686;51.292;4.166;2023-02-27T01:22:22;3.33;;;2.07;;
13238;SDS011;6686;51.292;4.166;2023-02-27T01:25:09;4.73;;;1.73;;
13238;SDS011;6686;51.292;4.166;2023-02-27T01:27:54;5.17;;;1.67;;
13238;SDS011;6686;51.292;4.166;2023-02-27T01:30:40;4.93;;;1.93;;
13238;SDS011;6686;51.292;4.166;2023-02-27T01:33:26;4.30;;;1.83;;
13238;SDS011;6686;51.292;4.166;2023-02-27T01:36:12;3.07;;;1.63;;
13238;SDS011;6686;51.292;4.166;2023-02-27T01:38:59;3.80;;;1.87;;
13238;SDS011;6686;51.292;4.166;2023-02-27T01:41:45;3.63;;;2.40;;
13238;SDS011;6686;51.292;4.166;2023-02-27T01:44:33;5.47;;;3.53;;
13238;SDS011;6686;51.292;4.166;2023-02-27T01:47:17;12.83;;;6.73;;
13238;SDS011;6686;51.292;4.166;2023-02-27T01:50:03;20.10;;;8.40;;
13238;SDS011;6686;51.292;4.166;2023-02-27T01:52:51;13.43;;;9.07;;
13238;SDS011;6686;51.292;4.166;2023-02-27T01:55:37;11.37;;;6.70;;
13238;SDS011;6686;51.292;4.166;2023-02-27T01:58:24;9.83;;;5.70;;
13238;SDS011;6686;51.292;4.166;2023-02-27T02:01:10;7.03;;;3.43;;
13238;SDS011;6686;51.292;4.166;2023-02-27T02:04:22;6.33;;;2.30;;
13238;SDS011;6686;51.292;4.166;2023-02-27T02:06:50;3.93;;;2.30;;
13238;SDS011;6686;51.292;4.166;2023-02-27T02:09:36;5.00;;;2.40;;
13238;SDS011;6686;51.292;4.166;2023-02-27T02:12:21;4.47;;;2.93;;
13238;SDS011;6686;51.292;4.166;2023-02-27T02:15:08;6.53;;;3.70;;
13238;SDS011;6686;51.292;4.166;2023-02-27T02:18:08;5.70;;;4.23;;
13238;SDS011;6686;51.292;4.166;2023-02-27T02:30:22;4.87;;;3.67;;
13238;SDS011;6686;51.292;4.166;2023-02-27T02:39:02;9.50;;;6.13;;
13238;SDS011;6686;51.292;4.166;2023-02-27T02:41:58;11.03;;;6.60;;
13238;SDS011;6686;51.292;4.166;2023-02-27T02:48:16;10.33;;;7.37;;
13238;SDS011;6686;51.292;4.166;2023-02-27T02:54:15;14.87;;;8.03;;
13238;SDS011;6686;51.292;4.166;2023-02-27T02:57:01;14.00;;;9.33;;
13238;SDS011;6686;51.292;4.166;2023-02-27T03:00:30;14.30;;;9.23;;
13238;SDS011;6686;51.292;4.166;2023-02-27T03:02:47;16.57;;;9.40;;
13238;SDS011;6686;51.292;4.166;2023-02-27T03:05:36;14.23;;;9.30;;
13238;SDS011;6686;51.292;4.166;2023-02-27T03:08:22;10.97;;;7.37;;
13238;SDS011;6686;51.292;4.166;2023-02-27T03:11:07;10.13;;;7.90;;
13238;SDS011;6686;51.292;4.166;2023-02-27T03:13:54;9.87;;;6.33;;
13238;SDS011;6686;51.292;4.166;2023-02-27T03:16:40;12.53;;;6.50;;
13238;SDS011;6686;51.292;4.166;2023-02-27T03:19:28;10.55;;;6.12;;
13238;SDS011;6686;51.292;4.166;2023-02-27T03:22:15;8.50;;;5.10;;
13238;SDS011;6686;51.292;4.166;2023-02-27T03:24:57;7.20;;;4.10;;
13238;SDS011;6686;51.292;4.166;2023-02-27T03:27:43;10.43;;;4.53;;
13238;SDS011;6686;51.292;4.166;2023-02-27T03:30:30;6.78;;;5.00;;
13238;SDS011;6686;51.292;4.166;2023-02-27T03:36:34;7.17;;;2.80;;
13238;SDS011;6686;51.292;4.166;2023-02-27T03:48:10;6.93;;;2.77;;
13238;SDS011;6686;51.292;4.166;2023-02-27T03:50:55;5.30;;;2.47;;
13238;SDS011;6686;51.292;4.166;2023-02-27T03:54:00;6.07;;;2.60;;
13238;SDS011;6686;51.292;4.166;2023-02-27T03:57:18;3.53;;;2.70;;
13238;SDS011;6686;51.292;4.166;2023-02-27T03:59:45;2.80;;;2.60;;
13238;SDS011;6686;51.292;4.166;2023-02-27T04:02:31;5.20;;;3.20;;
13238;SDS011;6686;51.292;4.166;2023-02-27T04:05:17;4.13;;;3.80;;
13238;SDS011;6686;51.292;4.166;2023-02-27T04:17:20;5.13;;;3.27;;
13238;SDS011;6686;51.292;4.166;2023-02-27T04:20:12;5.27;;;3.07;;
13238;SDS011;6686;51.292;4.166;2023-02-27T04:23:37;6.97;;;3.93;;
13238;SDS011;6686;51.292;4.166;2023-02-27T04:29:04;5.93;;;4.30;;
13238;SDS011;6686;51.292;4.166;2023-02-27T04:32:03;10.47;;;5.90;;
13238;SDS011;6686;51.292;4.166;2023-02-27T04:34:52;10.27;;;7.27;;
13238;SDS011;6686;51.292;4.166;2023-02-27T04:40:54;14.43;;;8.90;;
13238;SDS011;6686;51.292;4.166;2023-02-27T04:43:42;11.47;;;7.47;;
13238;SDS011;6686;51.292;4.166;2023-02-27T04:46:28;12.97;;;7.57;;
13238;SDS011;6686;51.292;4.166;2023-02-27T04:49:19;14.50;;;7.80;;
13238;SDS011;6686;51.292;4.166;2023-02-27T04:52:51;13.27;;;7.17;;
13238;SDS011;6686;51.292;4.166;2023-02-27T04:55:10;14.13;;;8.13;;
13238;SDS011;6686;51.292;4.166;2023-02-27T04:58:02;16.40;;;7.93;;
13238;SDS011;6686;51.292;4.166;2023-02-27T05:00:49;9.57;;;7.93;;
13238;SDS011;6686;51.292;4.166;2023-02-27T05:03:34;13.97;;;7.53;;
13238;SDS011;6686;51.292;4.166;2023-02-27T05:06:20;11.50;;;8.00;;
13238;SDS011;6686;51.292;4.166;2023-02-27T05:09:08;11.27;;;8.27;;
13238;SDS011;6686;51.292;4.166;2023-02-27T05:12:01;18.50;;;8.63;;
13238;SDS011;6686;51.292;4.166;2023-02-27T05:14:50;11.67;;;7.93;;
13238;SDS011;6686;51.292;4.166;2023-02-27T05:36:15;10.10;;;4.97;;
13238;SDS011;6686;51.292;4.166;2023-02-27T05:39:03;9.00;;;6.65;;
13238;SDS011;6686;51.292;4.166;2023-02-27T05:41:47;11.17;;;5.43;;
13238;SDS011;6686;51.292;4.166;2023-02-27T05:44:32;7.83;;;4.83;;
13238;SDS011;6686;51.292;4.166;2023-02-27T05:47:19;9.07;;;4.60;;
13238;SDS011;6686;51.292;4.166;2023-02-27T05:50:11;7.30;;;4.80;;
13238;SDS011;6686;51.292;4.166;2023-02-27T05:52:57;7.47;;;4.70;;
13238;SDS011;6686;51.292;4.166;2023-02-27T05:55:49;6.80;;;4.40;;
13238;SDS011;6686;51.292;4.166;2023-02-27T05:58:39;6.77;;;4.40;;
13238;SDS011;6686;51.292;4.166;2023-02-27T06:01:24;7.23;;;3.77;;
13238;SDS011;6686;51.292;4.166;2023-02-27T06:04:11;8.43;;;4.90;;
13238;SDS011;6686;51.292;4.166;2023-02-27T06:06:58;6.93;;;4.83;;
13238;SDS011;6686;51.292;4.166;2023-02-27T06:09:44;12.20;;;5.97;;
13238;SDS011;6686;51.292;4.166;2023-02-27T06:12:30;11.60;;;6.50;;
13238;SDS011;6686;51.292;4.166;2023-02-27T06:46:11;7.57;;;4.90;;
13238;SDS011;6686;51.292;4.166;2023-02-27T06:48:57;9.67;;;3.87;;
13238;SDS011;6686;51.292;4.166;2023-02-27T06:51:47;6.97;;;3.70;;
13238;SDS011;6686;51.292;4.166;2023-02-27T06:54:33;9.20;;;3.67;;
13238;SDS011;6686;51.292;4.166;2023-02-27T06:57:18;6.87;;;2.73;;
13238;SDS011;6686;51.292;4.166;2023-02-27T07:00:04;2.80;;;2.50;;
13238;SDS011;6686;51.292;4.166;2023-02-27T07:02:53;3.27;;;2.83;;
13238;SDS011;6686;51.292;4.166;2023-02-27T07:05:39;2.90;;;2.60;;
13238;SDS011;6686;51.292;4.166;2023-02-27T07:08:27;5.07;;;2.60;;
13238;SDS011;6686;51.292;4.166;2023-02-27T07:11:13;4.37;;;2.43;;
13238;SDS011;6686;51.292;4.166;2023-02-27T07:13:58;4.77;;;2.43;;
13238;SDS011;6686;51.292;4.166;2023-02-27T07:16:44;6.30;;;2.70;;
13238;SDS011;6686;51.292;4.166;2023-02-27T07:19:30;3.47;;;2.50;;
13238;SDS011;6686;51.292;4.166;2023-02-27T07:22:16;2.93;;;2.47;;
13238;SDS011;6686;51.292;4.166;2023-02-27T07:25:02;6.67;;;3.00;;
13238;SDS011;6686;51.292;4.166;2023-02-27T07:27:48;3.53;;;2.60;;
13238;SDS011;6686;51.292;4.166;2023-02-27T07:30:35;5.97;;;2.40;;
13238;SDS011;6686;51.292;4.166;2023-02-27T07:33:21;5.57;;;4.63;;
13238;SDS011;6686;51.292;4.166;2023-02-27T07:36:06;4.43;;;2.60;;
13238;SDS011;6686;51.292;4.166;2023-02-27T07:38:52;6.00;;;2.80;;
13238;SDS011;6686;51.292;4.166;2023-02-27T07:41:38;3.80;;;2.40;;
13238;SDS011;6686;51.292;4.166;2023-02-27T07:44:24;6.30;;;2.53;;
13238;SDS011;6686;51.292;4.166;2023-02-27T07:47:10;5.43;;;2.20;;
13238;SDS011;6686;51.292;4.166;2023-02-27T07:49:56;3.23;;;2.27;;
13238;SDS011;6686;51.292;4.166;2023-02-27T07:52:43;5.57;;;2.57;;
13238;SDS011;6686;51.292;4.166;2023-02-27T07:55:28;7.33;;;2.60;;
13238;SDS011;6686;51.292;4.166;2023-02-27T07:58:14;4.97;;;2.40;;
13238;SDS011;6686;51.292;4.166;2023-02-27T08:01:00;5.47;;;2.50;;
13238;SDS011;6686;51.292;4.166;2023-02-27T08:03:46;4.57;;;2.80;;
13238;SDS011;6686;51.292;4.166;2023-02-27T08:06:32;4.83;;;2.13;;
13238;SDS011;6686;51.292;4.166;2023-02-27T08:09:19;4.43;;;2.40;;
13238;SDS011;6686;51.292;4.166;2023-02-27T08:12:06;4.40;;;2.50;;
13238;SDS011;6686;51.292;4.166;2023-02-27T08:14:52;5.20;;;2.30;;
13238;SDS011;6686;51.292;4.166;2023-02-27T08:17:38;3.53;;;2.20;;
13238;SDS011;6686;51.292;4.166;2023-02-27T08:20:24;5.93;;;2.10;;
13238;SDS011;6686;51.292;4.166;2023-02-27T08:23:10;5.93;;;2.43;;
13238;SDS011;6686;51.292;4.166;2023-02-27T08:25:56;3.73;;;2.33;;
13238;SDS011;6686;51.292;4.166;2023-02-27T08:28:41;4.00;;;2.33;;
13238;SDS011;6686;51.292;4.166;2023-02-27T08:31:27;3.83;;;2.00;;
13238;SDS011;6686;51.292;4.166;2023-02-27T08:34:13;3.80;;;2.47;;
13238;SDS011;6686;51.292;4.166;2023-02-27T08:36:59;3.53;;;2.40;;
13238;SDS011;6686;51.292;4.166;2023-02-27T08:39:45;5.57;;;2.63;;
13238;SDS011;6686;51.292;4.166;2023-02-27T08:42:32;6.27;;;2.53;;
13238;SDS011;6686;51.292;4.166;2023-02-27T08:45:19;3.60;;;2.50;;
13238;SDS011;6686;51.292;4.166;2023-02-27T08:48:05;4.40;;;2.40;;
13238;SDS011;6686;51.292;4.166;2023-02-27T08:50:51;2.97;;;2.33;;
13238;SDS011;6686;51.292;4.166;2023-02-27T08:53:37;5.20;;;2.60;;
13238;SDS011;6686;51.292;4.166;2023-02-27T08:56:26;4.50;;;2.60;;
13238;SDS011;6686;51.292;4.166;2023-02-27T08:59:12;6.00;;;2.70;;
13238;SDS011;6686;51.292;4.166;2023-02-27T09:01:58;4.90;;;2.60;;
13238;SDS011;6686;51.292;4.166;2023-02-27T09:04:44;3.60;;;2.30;;
13238;SDS011;6686;51.292;4.166;2023-02-27T09:07:30;3.57;;;2.30;;
13238;SDS011;6686;51.292;4.166;2023-02-27T09:10:17;3.17;;;2.27;;
13238;SDS011;6686;51.292;4.166;2023-02-27T09:13:03;3.13;;;2.20;;
13238;SDS011;6686;51.292;4.166;2023-02-27T09:15:50;6.40;;;2.53;;
13238;SDS011;6686;51.292;4.166;2023-02-27T09:18:36;4.80;;;2.20;;
13238;SDS011;6686;51.292;4.166;2023-02-27T09:21:21;4.40;;;2.80;;
13238;SDS011;6686;51.292;4.166;2023-02-27T09:24:07;4.27;;;2.37;;
13238;SDS011;6686;51.292;4.166;2023-02-27T09:26:53;4.80;;;2.63;;
13238;SDS011;6686;51.292;4.166;2023-02-27T09:29:39;3.70;;;2.60;;
13238;SDS011;6686;51.292;4.166;2023-02-27T09:32:25;4.53;;;2.30;;
13238;SDS011;6686;51.292;4.166;2023-02-27T09:35:11;4.53;;;2.20;;
13238;SDS011;6686;51.292;4.166;2023-02-27T09:37:57;3.70;;;2.03;;
13238;SDS011;6686;51.292;4.166;2023-02-27T09:40:43;4.77;;;2.20;;
13238;SDS011;6686;51.292;4.166;2023-02-27T09:43:35;5.30;;;2.27;;
13238;SDS011;6686;51.292;4.166;2023-02-27T09:46:20;7.77;;;2.13;;
13238;SDS011;6686;51.292;4.166;2023-02-27T09:49:01;4.30;;;2.30;;
13238;SDS011;6686;51.292;4.166;2023-02-27T09:51:47;4.00;;;1.90;;
13238;SDS011;6686;51.292;4.166;2023-02-27T09:54:32;5.60;;;2.40;;
13238;SDS011;6686;51.292;4.166;2023-02-27T10:00:29;4.13;;;2.10;;
13238;SDS011;6686;51.292;4.166;2023-02-27T10:03:35;3.83;;;1.77;;
13238;SDS011;6686;51.292;4.166;2023-02-27T10:06:31;14.30;;;2.73;;
13238;SDS011;6686;51.292;4.166;2023-02-27T10:09:28;3.40;;;1.83;;
13238;SDS011;6686;51.292;4.166;2023-02-27T10:15:24;4.07;;;2.20;;
13238;SDS011;6686;51.292;4.166;2023-02-27T10:18:11;4.60;;;2.47;;
13238;SDS011;6686;51.292;4.166;2023-02-27T10:20:57;6.47;;;2.97;;
13238;SDS011;6686;51.292;4.166;2023-02-27T10:23:48;4.00;;;2.50;;
13238;SDS011;6686;51.292;4.166;2023-02-27T10:26:39;3.33;;;1.90;;
13238;SDS011;6686;51.292;4.166;2023-02-27T10:32:25;6.07;;;2.03;;
13238;SDS011;6686;51.292;4.166;2023-02-27T10:35:16;4.00;;;2.27;;
13238;SDS011;6686;51.292;4.166;2023-02-27T10:38:18;4.07;;;1.97;;
13238;SDS011;6686;51.292;4.166;2023-02-27T10:41:02;5.70;;;2.00;;
13238;SDS011;6686;51.292;4.166;2023-02-27T10:43:50;2.70;;;1.87;;
13238;SDS011;6686;51.292;4.166;2023-02-27T10:46:35;3.10;;;1.77;;
13238;SDS011;6686;51.292;4.166;2023-02-27T10:49:24;2.53;;;1.50;;
13238;SDS011;6686;51.292;4.166;2023-02-27T10:52:11;2.23;;;1.70;;
13238;SDS011;6686;51.292;4.166;2023-02-27T10:54:55;3.23;;;1.73;;
13238;SDS011;6686;51.292;4.166;2023-02-27T10:57:41;4.77;;;1.87;;
13238;SDS011;6686;51.292;4.166;2023-02-27T11:00:31;3.67;;;1.70;;
13238;SDS011;6686;51.292;4.166;2023-02-27T11:03:34;2.62;;;1.80;;
13238;SDS011;6686;51.292;4.166;2023-02-27T11:06:22;4.17;;;1.53;;
13238;SDS011;6686;51.292;4.166;2023-02-27T11:12:22;4.30;;;1.80;;
13238;SDS011;6686;51.292;4.166;2023-02-27T11:18:46;4.97;;;1.60;;
13238;SDS011;6686;51.292;4.166;2023-02-27T11:23:56;2.20;;;1.70;;
13238;SDS011;6686;51.292;4.166;2023-02-27T11:27:03;4.53;;;1.97;;
13238;SDS011;6686;51.292;4.166;2023-02-27T11:30:01;2.83;;;1.33;;
13238;SDS011;6686;51.292;4.166;2023-02-27T11:32:47;2.40;;;1.40;;
13238;SDS011;6686;51.292;4.166;2023-02-27T11:35:35;2.97;;;1.77;;
13238;SDS011;6686;51.292;4.166;2023-02-27T11:38:24;2.03;;;1.63;;
13238;SDS011;6686;51.292;4.166;2023-02-27T11:41:06;2.40;;;1.70;;
13238;SDS011;6686;51.292;4.166;2023-02-27T11:43:52;3.47;;;1.40;;
13238;SDS011;6686;51.292;4.166;2023-02-27T11:46:38;2.97;;;1.85;;
13238;SDS011;6686;51.292;4.166;2023-02-27T11:52:31;5.03;;;1.73;;
13238;SDS011;6686;51.292;4.166;2023-02-27T11:55:18;2.43;;;1.57;;
13238;SDS011;6686;51.292;4.166;2023-02-27T11:58:19;3.83;;;2.03;;
13238;SDS011;6686;51.292;4.166;2023-02-27T12:01:08;4.00;;;2.00;;
13238;SDS011;6686;51.292;4.166;2023-02-27T12:03:58;3.73;;;2.07;;
13238;SDS011;6686;51.292;4.166;2023-02-27T12:06:44;2.97;;;1.70;;
13238;SDS011;6686;51.292;4.166;2023-02-27T12:12:28;3.47;;;1.30;;
13238;SDS011;6686;51.292;4.166;2023-02-27T12:15:41;1.60;;;1.33;;
13238;SDS011;6686;51.292;4.166;2023-02-27T12:21:11;2.47;;;1.63;;
13238;SDS011;6686;51.292;4.166;2023-02-27T12:23:58;3.70;;;1.50;;
13238;SDS011;6686;51.292;4.166;2023-02-27T12:27:06;2.77;;;1.53;;
13238;SDS011;6686;51.292;4.166;2023-02-27T12:30:03;3.37;;;1.70;;
13238;SDS011;6686;51.292;4.166;2023-02-27T12:32:57;3.50;;;1.57;;
13238;SDS011;6686;51.292;4.166;2023-02-27T12:35:39;3.00;;;1.50;;
13238;SDS011;6686;51.292;4.166;2023-02-27T12:38:24;1.40;;;1.30;;
13238;SDS011;6686;51.292;4.166;2023-02-27T12:47:25;2.63;;;1.87;;
13238;SDS011;6686;51.292;4.166;2023-02-27T12:50:28;3.47;;;1.92;;
13238;SDS011;6686;51.292;4.166;2023-02-27T12:59:14;4.37;;;1.50;;
13238;SDS011;6686;51.292;4.166;2023-02-27T13:05:45;5.28;;;1.90;;
13238;SDS011;6686;51.292;4.166;2023-02-27T13:08:40;1.87;;;1.30;;
13238;SDS011;6686;51.292;4.166;2023-02-27T13:12:30;2.03;;;1.50;;
13238;SDS011;6686;51.292;4.166;2023-02-27T13:14:35;3.50;;;1.50;;
13238;SDS011;6686;51.292;4.166;2023-02-27T13:17:18;4.17;;;1.60;;
13238;SDS011;6686;51.292;4.166;2023-02-27T13:25:49;4.17;;;1.80;;
13238;SDS011;6686;51.292;4.166;2023-02-27T13:28:34;2.50;;;1.53;;
13238;SDS011;6686;51.292;4.166;2023-02-27T13:31:24;7.77;;;1.67;;
13238;SDS011;6686;51.292;4.166;2023-02-27T13:34:36;5.90;;;1.73;;
13238;SDS011;6686;51.292;4.166;2023-02-27T13:37:22;4.37;;;1.87;;
13238;SDS011;6686;51.292;4.166;2023-02-27T13:40:25;3.93;;;1.77;;
13238;SDS011;6686;51.292;4.166;2023-02-27T13:42:56;2.17;;;1.60;;
13238;SDS011;6686;51.292;4.166;2023-02-27T13:45:44;1.90;;;1.57;;
13238;SDS011;6686;51.292;4.166;2023-02-27T13:54:20;2.53;;;1.60;;
13238;SDS011;6686;51.292;4.166;2023-02-27T13:57:19;1.67;;;1.53;;
13238;SDS011;6686;51.292;4.166;2023-02-27T14:00:30;2.65;;;1.90;;
13238;SDS011;6686;51.292;4.166;2023-02-27T14:03:16;2.70;;;1.67;;
13238;SDS011;6686;51.292;4.166;2023-02-27T14:05:52;4.40;;;1.90;;
13238;SDS011;6686;51.292;4.166;2023-02-27T14:08:45;4.40;;;2.07;;
13238;SDS011;6686;51.292;4.166;2023-02-27T14:11:31;5.03;;;1.90;;
13238;SDS011;6686;51.292;4.166;2023-02-27T14:26:09;3.40;;;2.30;;
13238;SDS011;6686;51.292;4.166;2023-02-27T14:28:50;3.13;;;1.93;;
13238;SDS011;6686;51.292;4.166;2023-02-27T14:31:36;2.57;;;2.17;;
13238;SDS011;6686;51.292;4.166;2023-02-27T14:34:21;3.57;;;2.20;;
13238;SDS011;6686;51.292;4.166;2023-02-27T14:37:09;4.53;;;2.33;;
13238;SDS011;6686;51.292;4.166;2023-02-27T14:39:54;2.70;;;1.80;;
13238;SDS011;6686;51.292;4.166;2023-02-27T14:45:49;2.77;;;2.00;;
13238;SDS011;6686;51.292;4.166;2023-02-27T14:48:35;4.33;;;2.00;;
13238;SDS011;6686;51.292;4.166;2023-02-27T14:51:22;2.87;;;2.20;;
13238;SDS011;6686;51.292;4.166;2023-02-27T14:57:03;4.57;;;2.13;;
13238;SDS011;6686;51.292;4.166;2023-02-27T14:59:46;2.90;;;1.93;;
13238;SDS011;6686;51.292;4.166;2023-02-27T15:02:34;7.43;;;2.90;;
13238;SDS011;6686;51.292;4.166;2023-02-27T15:05:19;3.77;;;2.20;;
13238;SDS011;6686;51.292;4.166;2023-02-27T15:08:11;6.90;;;2.13;;
13238;SDS011;6686;51.292;4.166;2023-02-27T15:10:53;2.20;;;1.93;;
13238;SDS011;6686;51.292;4.166;2023-02-27T15:13:39;4.67;;;2.10;;
13238;SDS011;6686;51.292;4.166;2023-02-27T15:16:30;6.17;;;2.03;;
13238;SDS011;6686;51.292;4.166;2023-02-27T15:19:17;2.92;;;1.92;;
13238;SDS011;6686;51.292;4.166;2023-02-27T15:22:13;3.97;;;1.90;;
13238;SDS011;6686;51.292;4.166;2023-02-27T15:24:49;4.30;;;1.80;;
13238;SDS011;6686;51.292;4.166;2023-02-27T15:27:36;3.13;;;1.70;;
13238;SDS011;6686;51.292;4.166;2023-02-27T15:30:22;5.10;;;2.27;;
13238;SDS011;6686;51.292;4.166;2023-02-27T15:33:11;3.43;;;2.03;;
13238;SDS011;6686;51.292;4.166;2023-02-27T15:35:55;3.03;;;1.57;;
13238;SDS011;6686;51.292;4.166;2023-02-27T15:38:41;2.43;;;1.60;;
13238;SDS011;6686;51.292;4.166;2023-02-27T15:41:27;3.60;;;2.13;;
13238;SDS011;6686;51.292;4.166;2023-02-27T15:44:14;4.43;;;1.53;;
13238;SDS011;6686;51.292;4.166;2023-02-27T15:46:59;3.67;;;1.90;;
13238;SDS011;6686;51.292;4.166;2023-02-27T15:49:44;1.97;;;1.60;;
13238;SDS011;6686;51.292;4.166;2023-02-27T15:52:31;1.93;;;1.80;;
13238;SDS011;6686;51.292;4.166;2023-02-27T15:55:21;3.23;;;1.70;;
13238;SDS011;6686;51.292;4.166;2023-02-27T16:01:04;3.80;;;1.83;;
13238;SDS011;6686;51.292;4.166;2023-02-27T16:03:51;2.97;;;1.80;;
13238;SDS011;6686;51.292;4.166;2023-02-27T16:06:38;3.80;;;1.60;;
13238;SDS011;6686;51.292;4.166;2023-02-27T16:09:24;4.23;;;3.10;;
13238;SDS011;6686;51.292;4.166;2023-02-27T16:12:32;5.67;;;2.00;;
13238;SDS011;6686;51.292;4.166;2023-02-27T16:20:52;3.63;;;1.77;;
13238;SDS011;6686;51.292;4.166;2023-02-27T16:23:40;2.33;;;1.37;;
13238;SDS011;6686;51.292;4.166;2023-02-27T16:26:27;2.20;;;1.40;;
13238;SDS011;6686;51.292;4.166;2023-02-27T16:29:15;2.50;;;1.70;;
13238;SDS011;6686;51.292;4.166;2023-02-27T16:32:13;3.13;;;1.70;;
13238;SDS011;6686;51.292;4.166;2023-02-27T16:35:01;2.03;;;1.73;;
13238;SDS011;6686;51.292;4.166;2023-02-27T16:37:46;4.00;;;2.03;;
13238;SDS011;6686;51.292;4.166;2023-02-27T16:40:32;3.07;;;1.90;;
13238;SDS011;6686;51.292;4.166;2023-02-27T16:43:18;2.03;;;1.63;;
13238;SDS011;6686;51.292;4.166;2023-02-27T16:46:04;4.03;;;2.20;;
13238;SDS011;6686;51.292;4.166;2023-02-27T16:48:54;5.53;;;2.87;;
13238;SDS011;6686;51.292;4.166;2023-02-27T16:51:39;2.57;;;1.80;;
13238;SDS011;6686;51.292;4.166;2023-02-27T16:54:25;1.87;;;1.70;;
13238;SDS011;6686;51.292;4.166;2023-02-27T16:57:10;3.57;;;1.90;;
13238;SDS011;6686;51.292;4.166;2023-02-27T16:59:56;2.80;;;2.17;;
13238;SDS011;6686;51.292;4.166;2023-02-27T17:02:42;1.90;;;1.70;;
13238;SDS011;6686;51.292;4.166;2023-02-27T17:05:28;1.90;;;1.67;;
13238;SDS011;6686;51.292;4.166;2023-02-27T17:08:14;4.63;;;2.10;;
13238;SDS011;6686;51.292;4.166;2023-02-27T17:11:00;5.47;;;2.10;;
13238;SDS011;6686;51.292;4.166;2023-02-27T17:13:46;3.67;;;2.07;;
13238;SDS011;6686;51.292;4.166;2023-02-27T17:16:32;2.90;;;1.90;;
13238;SDS011;6686;51.292;4.166;2023-02-27T17:19:18;3.78;;;2.12;;
13238;SDS011;6686;51.292;4.166;2023-02-27T17:22:04;2.83;;;2.10;;
13238;SDS011;6686;51.292;4.166;2023-02-27T17:24:49;12.13;;;3.40;;
13238;SDS011;6686;51.292;4.166;2023-02-27T17:27:35;4.00;;;2.17;;
13238;SDS011;6686;51.292;4.166;2023-02-27T17:30:21;2.53;;;2.20;;
13238;SDS011;6686;51.292;4.166;2023-02-27T17:33:07;2.90;;;2.30;;
13238;SDS011;6686;51.292;4.166;2023-02-27T17:35:59;4.17;;;2.20;;
13238;SDS011;6686;51.292;4.166;2023-02-27T17:38:39;3.90;;;2.27;;
13238;SDS011;6686;51.292;4.166;2023-02-27T17:41:28;5.60;;;2.80;;
13238;SDS011;6686;51.292;4.166;2023-02-27T17:44:13;2.30;;;2.07;;
13238;SDS011;6686;51.292;4.166;2023-02-27T17:46:59;3.23;;;2.20;;
13238;SDS011;6686;51.292;4.166;2023-02-27T17:49:45;5.10;;;2.27;;
13238;SDS011;6686;51.292;4.166;2023-02-27T17:52:33;3.50;;;2.70;;
13238;SDS011;6686;51.292;4.166;2023-02-27T17:55:17;2.97;;;2.47;;
13238;SDS011;6686;51.292;4.166;2023-02-27T17:58:03;2.53;;;2.33;;
13238;SDS011;6686;51.292;4.166;2023-02-27T18:00:49;2.50;;;2.30;;
13238;SDS011;6686;51.292;4.166;2023-02-27T18:03:35;5.77;;;2.40;;
13238;SDS011;6686;51.292;4.166;2023-02-27T18:06:22;2.83;;;2.53;;
13238;SDS011;6686;51.292;4.166;2023-02-27T18:09:08;3.37;;;2.60;;
13238;SDS011;6686;51.292;4.166;2023-02-27T18:11:53;3.03;;;2.40;;
13238;SDS011;6686;51.292;4.166;2023-02-27T18:14:39;4.73;;;3.73;;
13238;SDS011;6686;51.292;4.166;2023-02-27T18:17:25;4.07;;;2.90;;
13238;SDS011;6686;51.292;4.166;2023-02-27T18:20:11;11.73;;;4.40;;
13238;SDS011;6686;51.292;4.166;2023-02-27T18:22:57;4.83;;;3.47;;
13238;SDS011;6686;51.292;4.166;2023-02-27T18:25:43;5.70;;;3.50;;
13238;SDS011;6686;51.292;4.166;2023-02-27T18:28:28;3.17;;;2.97;;
13238;SDS011;6686;51.292;4.166;2023-02-27T18:31:18;4.00;;;3.00;;
13238;SDS011;6686;51.292;4.166;2023-02-27T18:34:04;8.03;;;3.63;;
13238;SDS011;6686;51.292;4.166;2023-02-27T18:36:50;4.70;;;3.07;;
13238;SDS011;6686;51.292;4.166;2023-02-27T18:39:36;5.13;;;3.20;;
13238;SDS011;6686;51.292;4.166;2023-02-27T18:42:22;5.27;;;3.30;;
13238;SDS011;6686;51.292;4.166;2023-02-27T18:45:08;4.50;;;2.77;;
13238;SDS011;6686;51.292;4.166;2023-02-27T18:47:54;4.57;;;3.27;;
13238;SDS011;6686;51.292;4.166;2023-02-27T18:50:40;5.30;;;3.07;;
13238;SDS011;6686;51.292;4.166;2023-02-27T18:53:25;3.93;;;2.60;;
13238;SDS011;6686;51.292;4.166;2023-02-27T18:56:12;2.97;;;2.70;;
13238;SDS011;6686;51.292;4.166;2023-02-27T18:58:58;4.47;;;3.33;;
13238;SDS011;6686;51.292;4.166;2023-02-27T19:01:44;5.43;;;3.00;;
13238;SDS011;6686;51.292;4.166;2023-02-27T19:04:33;4.67;;;3.13;;
13238;SDS011;6686;51.292;4.166;2023-02-27T19:07:19;3.53;;;2.83;;
13238;SDS011;6686;51.292;4.166;2023-02-27T19:10:06;5.00;;;2.90;;
13238;SDS011;6686;51.292;4.166;2023-02-27T19:12:51;6.00;;;3.83;;
13238;SDS011;6686;51.292;4.166;2023-02-27T19:15:37;5.10;;;3.07;;
13238;SDS011;6686;51.292;4.166;2023-02-27T19:18:23;5.00;;;3.80;;
13238;SDS011;6686;51.292;4.166;2023-02-27T19:21:09;8.57;;;4.53;;
13238;SDS011;6686;51.292;4.166;2023-02-27T19:23:55;4.20;;;3.80;;
13238;SDS011;6686;51.292;4.166;2023-02-27T19:26:41;4.27;;;3.87;;
13238;SDS011;6686;51.292;4.166;2023-02-27T19:29:27;3.90;;;3.60;;
13238;SDS011;6686;51.292;4.166;2023-02-27T19:32:13;3.70;;;3.30;;
13238;SDS011;6686;51.292;4.166;2023-02-27T19:34:59;4.13;;;3.10;;
13238;SDS011;6686;51.292;4.166;2023-02-27T19:37:45;5.33;;;3.97;;
13238;SDS011;6686;51.292;4.166;2023-02-27T19:40:31;7.10;;;3.90;;
13238;SDS011;6686;51.292;4.166;2023-02-27T19:43:17;6.53;;;3.73;;
13238;SDS011;6686;51.292;4.166;2023-02-27T19:46:04;5.77;;;3.80;;
13238;SDS011;6686;51.292;4.166;2023-02-27T19:48:53;4.07;;;3.57;;
13238;SDS011;6686;51.292;4.166;2023-02-27T19:51:38;7.17;;;4.40;;
13238;SDS011;6686;51.292;4.166;2023-02-27T19:54:25;11.03;;;7.00;;
13238;SDS011;6686;51.292;4.166;2023-02-27T19:57:10;12.73;;;6.90;;
13238;SDS011;6686;51.292;4.166;2023-02-27T19:59:57;7.53;;;5.33;;
13238;SDS011;6686;51.292;4.166;2023-02-27T20:02:43;3.83;;;3.43;;
13238;SDS011;6686;51.292;4.166;2023-02-27T20:05:29;4.33;;;3.90;;